sensor_id;sensor_type;location;lat;lon;timestamp;P1;durP1;ratioP1;P2;durP2;ratioP2
77430;SDS011;66498;48.564;19.272;2023-12-20T00:01:40;37.43;;;12.00;;
77430;SDS011;66498;48.564;19.272;2023-12-20T00:04:05;66.43;;;31.15;;
77430;SDS011;66498;48.564;19.272;2023-12-20T00:06:31;73.88;;;31.55;;
77430;SDS011;66498;48.564;19.272;2023-12-20T00:08:56;58.45;;;29.15;;
77430;SDS011;66498;48.564;19.272;2023-12-20T00:11:23;51.90;;;29.23;;
77430;SDS011;66498;48.564;19.272;2023-12-20T00:13:48;57.78;;;30.52;;
77430;SDS011;66498;48.564;19.272;2023-12-20T00:16:14;61.72;;;30.50;;
77430;SDS011;66498;48.564;19.272;2023-12-20T00:18:39;61.30;;;34.85;;
77430;SDS011;66498;48.564;19.272;2023-12-20T00:21:05;48.63;;;29.50;;
77430;SDS011;66498;48.564;19.272;2023-12-20T00:23:30;83.88;;;43.35;;
77430;SDS011;66498;48.564;19.272;2023-12-20T00:25:56;55.23;;;28.87;;
77430;SDS011;66498;48.564;19.272;2023-12-20T00:28:21;49.95;;;29.48;;
77430;SDS011;66498;48.564;19.272;2023-12-20T00:30:47;60.42;;;31.95;;
77430;SDS011;66498;48.564;19.272;2023-12-20T00:33:13;48.72;;;29.65;;
77430;SDS011;66498;48.564;19.272;2023-12-20T00:35:38;51.65;;;28.02;;
77430;SDS011;66498;48.564;19.272;2023-12-20T00:38:03;48.83;;;27.63;;
77430;SDS011;66498;48.564;19.272;2023-12-20T00:40:30;38.55;;;10.40;;
77430;SDS011;66498;48.564;19.272;2023-12-20T00:42:56;46.58;;;27.45;;
77430;SDS011;66498;48.564;19.272;2023-12-20T00:45:21;51.20;;;30.75;;
77430;SDS011;66498;48.564;19.272;2023-12-20T00:47:46;46.40;;;14.48;;
77430;SDS011;66498;48.564;19.272;2023-12-20T00:50:12;25.02;;;10.05;;
77430;SDS011;66498;48.564;19.272;2023-12-20T00:52:37;32.50;;;12.15;;
77430;SDS011;66498;48.564;19.272;2023-12-20T00:55:03;30.17;;;11.57;;
77430;SDS011;66498;48.564;19.272;2023-12-20T00:57:29;68.75;;;29.35;;
77430;SDS011;66498;48.564;19.272;2023-12-20T00:59:56;48.20;;;27.73;;
77430;SDS011;66498;48.564;19.272;2023-12-20T01:02:21;59.72;;;29.85;;
77430;SDS011;66498;48.564;19.272;2023-12-20T01:04:46;61.20;;;28.60;;
77430;SDS011;66498;48.564;19.272;2023-12-20T01:07:12;33.58;;;11.20;;
77430;SDS011;66498;48.564;19.272;2023-12-20T01:09:37;45.87;;;26.57;;
77430;SDS011;66498;48.564;19.272;2023-12-20T01:12:03;36.38;;;12.40;;
77430;SDS011;66498;48.564;19.272;2023-12-20T01:14:28;44.03;;;25.63;;
77430;SDS011;66498;48.564;19.272;2023-12-20T01:16:54;23.67;;;10.82;;
77430;SDS011;66498;48.564;19.272;2023-12-20T01:19:19;50.13;;;26.17;;
77430;SDS011;66498;48.564;19.272;2023-12-20T01:21:45;43.07;;;25.80;;
77430;SDS011;66498;48.564;19.272;2023-12-20T01:24:10;51.47;;;28.77;;
77430;SDS011;66498;48.564;19.272;2023-12-20T01:26:36;40.60;;;11.60;;
77430;SDS011;66498;48.564;19.272;2023-12-20T01:29:02;20.17;;;9.80;;
77430;SDS011;66498;48.564;19.272;2023-12-20T01:31:27;11.60;;;6.65;;
77430;SDS011;66498;48.564;19.272;2023-12-20T01:33:53;15.80;;;8.67;;
77430;SDS011;66498;48.564;19.272;2023-12-20T01:36:18;43.57;;;26.60;;
77430;SDS011;66498;48.564;19.272;2023-12-20T01:38:44;57.70;;;29.03;;
77430;SDS011;66498;48.564;19.272;2023-12-20T01:41:10;31.50;;;10.70;;
77430;SDS011;66498;48.564;19.272;2023-12-20T01:43:35;47.27;;;11.13;;
77430;SDS011;66498;48.564;19.272;2023-12-20T01:46:01;42.83;;;13.27;;
77430;SDS011;66498;48.564;19.272;2023-12-20T01:48:28;55.03;;;30.60;;
77430;SDS011;66498;48.564;19.272;2023-12-20T01:50:58;56.93;;;31.00;;
77430;SDS011;66498;48.564;19.272;2023-12-20T01:53:27;47.23;;;29.33;;
77430;SDS011;66498;48.564;19.272;2023-12-20T01:55:54;54.83;;;30.10;;
77430;SDS011;66498;48.564;19.272;2023-12-20T01:58:21;53.40;;;30.90;;
77430;SDS011;66498;48.564;19.272;2023-12-20T02:00:48;54.63;;;30.43;;
77430;SDS011;66498;48.564;19.272;2023-12-20T02:03:13;57.35;;;29.55;;
77430;SDS011;66498;48.564;19.272;2023-12-20T02:05:39;26.93;;;11.53;;
77430;SDS011;66498;48.564;19.272;2023-12-20T02:08:06;20.97;;;9.53;;
77430;SDS011;66498;48.564;19.272;2023-12-20T02:10:31;62.70;;;32.47;;
77430;SDS011;66498;48.564;19.272;2023-12-20T02:12:57;47.97;;;29.98;;
77430;SDS011;66498;48.564;19.272;2023-12-20T02:15:23;56.73;;;30.43;;
77430;SDS011;66498;48.564;19.272;2023-12-20T02:17:49;31.83;;;12.83;;
77430;SDS011;66498;48.564;19.272;2023-12-20T02:20:17;63.38;;;30.40;;
77430;SDS011;66498;48.564;19.272;2023-12-20T02:22:42;79.53;;;34.10;;
77430;SDS011;66498;48.564;19.272;2023-12-20T02:25:08;33.53;;;12.00;;
77430;SDS011;66498;48.564;19.272;2023-12-20T02:27:34;31.08;;;10.05;;
77430;SDS011;66498;48.564;19.272;2023-12-20T02:29:59;54.75;;;14.32;;
77430;SDS011;66498;48.564;19.272;2023-12-20T02:32:25;71.50;;;33.33;;
77430;SDS011;66498;48.564;19.272;2023-12-20T02:34:54;51.85;;;30.27;;
77430;SDS011;66498;48.564;19.272;2023-12-20T02:37:20;54.90;;;31.67;;
77430;SDS011;66498;48.564;19.272;2023-12-20T02:39:45;53.80;;;30.60;;
77430;SDS011;66498;48.564;19.272;2023-12-20T02:42:11;37.45;;;12.93;;
77430;SDS011;66498;48.564;19.272;2023-12-20T02:44:36;31.40;;;11.73;;
77430;SDS011;66498;48.564;19.272;2023-12-20T02:47:02;67.38;;;32.38;;
77430;SDS011;66498;48.564;19.272;2023-12-20T02:49:28;36.63;;;12.63;;
77430;SDS011;66498;48.564;19.272;2023-12-20T02:51:53;59.78;;;31.80;;
77430;SDS011;66498;48.564;19.272;2023-12-20T02:54:37;28.77;;;12.02;;
77430;SDS011;66498;48.564;19.272;2023-12-20T02:57:02;28.83;;;11.37;;
77430;SDS011;66498;48.564;19.272;2023-12-20T02:59:28;63.90;;;31.23;;
77430;SDS011;66498;48.564;19.272;2023-12-20T03:02:02;61.92;;;30.02;;
77430;SDS011;66498;48.564;19.272;2023-12-20T03:04:28;66.05;;;30.63;;
77430;SDS011;66498;48.564;19.272;2023-12-20T03:06:53;57.90;;;30.27;;
77430;SDS011;66498;48.564;19.272;2023-12-20T03:09:19;67.72;;;31.65;;
77430;SDS011;66498;48.564;19.272;2023-12-20T03:11:44;29.63;;;9.93;;
77430;SDS011;66498;48.564;19.272;2023-12-20T03:14:10;67.95;;;31.52;;
77430;SDS011;66498;48.564;19.272;2023-12-20T03:16:35;30.52;;;11.10;;
77430;SDS011;66498;48.564;19.272;2023-12-20T03:19:01;27.87;;;11.33;;
77430;SDS011;66498;48.564;19.272;2023-12-20T03:21:26;56.95;;;28.63;;
77430;SDS011;66498;48.564;19.272;2023-12-20T03:23:51;62.10;;;29.60;;
77430;SDS011;66498;48.564;19.272;2023-12-20T03:26:17;54.33;;;28.20;;
77430;SDS011;66498;48.564;19.272;2023-12-20T03:28:44;43.42;;;26.77;;
77430;SDS011;66498;48.564;19.272;2023-12-20T03:31:09;32.17;;;10.90;;
77430;SDS011;66498;48.564;19.272;2023-12-20T03:33:35;45.65;;;27.48;;
77430;SDS011;66498;48.564;19.272;2023-12-20T03:36:00;29.47;;;10.30;;
77430;SDS011;66498;48.564;19.272;2023-12-20T03:38:26;46.22;;;25.77;;
77430;SDS011;66498;48.564;19.272;2023-12-20T03:40:52;21.80;;;8.97;;
77430;SDS011;66498;48.564;19.272;2023-12-20T03:43:17;22.93;;;10.53;;
77430;SDS011;66498;48.564;19.272;2023-12-20T03:45:43;34.80;;;10.37;;
77430;SDS011;66498;48.564;19.272;2023-12-20T03:48:08;60.22;;;29.48;;
77430;SDS011;66498;48.564;19.272;2023-12-20T03:50:34;56.28;;;28.42;;
77430;SDS011;66498;48.564;19.272;2023-12-20T03:53:00;43.03;;;26.95;;
77430;SDS011;66498;48.564;19.272;2023-12-20T03:55:26;25.10;;;9.67;;
77430;SDS011;66498;48.564;19.272;2023-12-20T03:57:51;55.93;;;28.30;;
77430;SDS011;66498;48.564;19.272;2023-12-20T04:00:17;51.95;;;27.25;;
77430;SDS011;66498;48.564;19.272;2023-12-20T04:02:42;25.53;;;10.97;;
77430;SDS011;66498;48.564;19.272;2023-12-20T04:05:08;27.03;;;10.70;;
77430;SDS011;66498;48.564;19.272;2023-12-20T04:07:35;19.67;;;9.53;;
77430;SDS011;66498;48.564;19.272;2023-12-20T04:10:01;31.10;;;11.80;;
77430;SDS011;66498;48.564;19.272;2023-12-20T04:12:27;23.17;;;10.40;;
77430;SDS011;66498;48.564;19.272;2023-12-20T04:14:53;40.70;;;12.43;;
77430;SDS011;66498;48.564;19.272;2023-12-20T04:17:19;24.93;;;11.13;;
77430;SDS011;66498;48.564;19.272;2023-12-20T04:19:45;21.77;;;10.07;;
77430;SDS011;66498;48.564;19.272;2023-12-20T04:22:10;17.90;;;8.70;;
77430;SDS011;66498;48.564;19.272;2023-12-20T04:24:36;22.57;;;8.63;;
77430;SDS011;66498;48.564;19.272;2023-12-20T04:27:01;44.60;;;27.90;;
77430;SDS011;66498;48.564;19.272;2023-12-20T04:29:27;47.73;;;28.47;;
77430;SDS011;66498;48.564;19.272;2023-12-20T04:31:53;22.80;;;8.87;;
77430;SDS011;66498;48.564;19.272;2023-12-20T04:34:19;25.93;;;12.27;;
77430;SDS011;66498;48.564;19.272;2023-12-20T04:36:46;48.70;;;28.83;;
77430;SDS011;66498;48.564;19.272;2023-12-20T04:39:12;21.47;;;10.00;;
77430;SDS011;66498;48.564;19.272;2023-12-20T04:41:38;22.20;;;10.97;;
77430;SDS011;66498;48.564;19.272;2023-12-20T04:44:04;49.23;;;28.13;;
77430;SDS011;66498;48.564;19.272;2023-12-20T04:46:29;22.77;;;10.20;;
77430;SDS011;66498;48.564;19.272;2023-12-20T04:48:55;45.87;;;28.30;;
77430;SDS011;66498;48.564;19.272;2023-12-20T04:51:20;23.05;;;10.85;;
77430;SDS011;66498;48.564;19.272;2023-12-20T04:53:46;54.70;;;30.60;;
77430;SDS011;66498;48.564;19.272;2023-12-20T04:56:12;17.87;;;8.70;;
77430;SDS011;66498;48.564;19.272;2023-12-20T04:58:37;26.27;;;10.03;;
77430;SDS011;66498;48.564;19.272;2023-12-20T05:01:03;18.77;;;9.17;;
77430;SDS011;66498;48.564;19.272;2023-12-20T05:03:30;58.83;;;34.13;;
77430;SDS011;66498;48.564;19.272;2023-12-20T05:05:56;30.50;;;11.63;;
77430;SDS011;66498;48.564;19.272;2023-12-20T05:08:21;18.20;;;10.93;;
77430;SDS011;66498;48.564;19.272;2023-12-20T05:10:47;28.17;;;12.37;;
77430;SDS011;66498;48.564;19.272;2023-12-20T05:13:12;29.80;;;10.63;;
77430;SDS011;66498;48.564;19.272;2023-12-20T05:15:38;64.17;;;32.87;;
77430;SDS011;66498;48.564;19.272;2023-12-20T05:18:04;57.40;;;31.60;;
77430;SDS011;66498;48.564;19.272;2023-12-20T05:20:29;22.10;;;10.70;;
77430;SDS011;66498;48.564;19.272;2023-12-20T05:22:55;51.23;;;31.00;;
77430;SDS011;66498;48.564;19.272;2023-12-20T05:25:20;24.20;;;11.50;;
77430;SDS011;66498;48.564;19.272;2023-12-20T05:27:46;51.27;;;30.93;;
77430;SDS011;66498;48.564;19.272;2023-12-20T05:30:11;23.37;;;9.57;;
77430;SDS011;66498;48.564;19.272;2023-12-20T05:32:37;49.10;;;30.77;;
77430;SDS011;66498;48.564;19.272;2023-12-20T05:35:02;24.47;;;10.57;;
77430;SDS011;66498;48.564;19.272;2023-12-20T05:37:28;18.47;;;8.63;;
77430;SDS011;66498;48.564;19.272;2023-12-20T05:39:54;16.70;;;8.70;;
77430;SDS011;66498;48.564;19.272;2023-12-20T05:42:19;47.90;;;27.47;;
77430;SDS011;66498;48.564;19.272;2023-12-20T05:44:44;18.23;;;9.60;;
77430;SDS011;66498;48.564;19.272;2023-12-20T05:47:10;17.87;;;9.00;;
77430;SDS011;66498;48.564;19.272;2023-12-20T05:49:36;27.30;;;9.70;;
77430;SDS011;66498;48.564;19.272;2023-12-20T05:52:03;24.40;;;8.83;;
77430;SDS011;66498;48.564;19.272;2023-12-20T05:54:28;56.87;;;27.97;;
77430;SDS011;66498;48.564;19.272;2023-12-20T05:56:54;24.03;;;10.23;;
77430;SDS011;66498;48.564;19.272;2023-12-20T05:59:19;20.87;;;9.67;;
77430;SDS011;66498;48.564;19.272;2023-12-20T06:01:45;31.87;;;9.30;;
77430;SDS011;66498;48.564;19.272;2023-12-20T06:04:10;24.90;;;10.63;;
77430;SDS011;66498;48.564;19.272;2023-12-20T06:06:40;25.93;;;11.37;;
77430;SDS011;66498;48.564;19.272;2023-12-20T06:09:07;26.13;;;10.40;;
77430;SDS011;66498;48.564;19.272;2023-12-20T06:11:32;62.00;;;30.97;;
77430;SDS011;66498;48.564;19.272;2023-12-20T06:13:58;19.33;;;9.37;;
77430;SDS011;66498;48.564;19.272;2023-12-20T06:16:23;24.87;;;9.63;;
77430;SDS011;66498;48.564;19.272;2023-12-20T06:18:49;19.47;;;10.50;;
77430;SDS011;66498;48.564;19.272;2023-12-20T06:21:14;56.53;;;33.67;;
77430;SDS011;66498;48.564;19.272;2023-12-20T06:23:40;26.47;;;12.70;;
77430;SDS011;66498;48.564;19.272;2023-12-20T06:26:05;23.50;;;10.27;;
77430;SDS011;66498;48.564;19.272;2023-12-20T06:28:31;27.27;;;11.13;;
77430;SDS011;66498;48.564;19.272;2023-12-20T06:30:56;69.00;;;37.17;;
77430;SDS011;66498;48.564;19.272;2023-12-20T06:33:22;72.73;;;37.70;;
77430;SDS011;66498;48.564;19.272;2023-12-20T06:35:49;31.43;;;13.50;;
77430;SDS011;66498;48.564;19.272;2023-12-20T06:38:14;30.97;;;12.73;;
77430;SDS011;66498;48.564;19.272;2023-12-20T06:40:40;32.57;;;13.00;;
77430;SDS011;66498;48.564;19.272;2023-12-20T06:43:05;26.67;;;11.97;;
77430;SDS011;66498;48.564;19.272;2023-12-20T06:45:31;31.50;;;11.90;;
77430;SDS011;66498;48.564;19.272;2023-12-20T06:47:57;27.90;;;12.77;;
77430;SDS011;66498;48.564;19.272;2023-12-20T06:50:23;24.83;;;12.17;;
77430;SDS011;66498;48.564;19.272;2023-12-20T06:52:49;28.83;;;11.30;;
77430;SDS011;66498;48.564;19.272;2023-12-20T06:55:14;31.80;;;15.37;;
77430;SDS011;66498;48.564;19.272;2023-12-20T06:57:40;31.37;;;12.17;;
77430;SDS011;66498;48.564;19.272;2023-12-20T07:00:06;72.43;;;36.57;;
77430;SDS011;66498;48.564;19.272;2023-12-20T07:02:33;24.53;;;10.00;;
77430;SDS011;66498;48.564;19.272;2023-12-20T07:04:59;65.57;;;33.90;;
77430;SDS011;66498;48.564;19.272;2023-12-20T07:07:25;31.60;;;12.87;;
77430;SDS011;66498;48.564;19.272;2023-12-20T07:09:51;33.60;;;13.80;;
77430;SDS011;66498;48.564;19.272;2023-12-20T07:12:16;25.20;;;11.47;;
77430;SDS011;66498;48.564;19.272;2023-12-20T07:14:44;26.03;;;11.27;;
77430;SDS011;66498;48.564;19.272;2023-12-20T07:17:10;32.67;;;14.27;;
77430;SDS011;66498;48.564;19.272;2023-12-20T07:19:38;27.57;;;12.10;;
77430;SDS011;66498;48.564;19.272;2023-12-20T07:22:05;32.27;;;12.80;;
77430;SDS011;66498;48.564;19.272;2023-12-20T07:24:31;34.43;;;13.57;;
77430;SDS011;66498;48.564;19.272;2023-12-20T07:26:57;62.87;;;36.70;;
77430;SDS011;66498;48.564;19.272;2023-12-20T07:29:22;62.23;;;35.43;;
77430;SDS011;66498;48.564;19.272;2023-12-20T07:31:48;36.93;;;14.13;;
77430;SDS011;66498;48.564;19.272;2023-12-20T07:34:13;30.43;;;14.47;;
77430;SDS011;66498;48.564;19.272;2023-12-20T07:36:39;33.60;;;13.80;;
77430;SDS011;66498;48.564;19.272;2023-12-20T07:39:04;19.87;;;11.20;;
77430;SDS011;66498;48.564;19.272;2023-12-20T07:41:30;39.03;;;13.73;;
77430;SDS011;66498;48.564;19.272;2023-12-20T07:43:55;61.30;;;35.13;;
77430;SDS011;66498;48.564;19.272;2023-12-20T07:46:21;51.33;;;32.67;;
77430;SDS011;66498;48.564;19.272;2023-12-20T07:48:50;26.60;;;11.33;;
77430;SDS011;66498;48.564;19.272;2023-12-20T07:51:16;45.70;;;30.10;;
77430;SDS011;66498;48.564;19.272;2023-12-20T07:53:42;24.00;;;12.17;;
77430;SDS011;66498;48.564;19.272;2023-12-20T07:56:17;43.47;;;30.00;;
77430;SDS011;66498;48.564;19.272;2023-12-20T07:58:43;30.83;;;13.37;;
77430;SDS011;66498;48.564;19.272;2023-12-20T08:01:10;34.77;;;13.13;;
77430;SDS011;66498;48.564;19.272;2023-12-20T08:03:36;57.40;;;33.73;;
77430;SDS011;66498;48.564;19.272;2023-12-20T08:06:02;55.60;;;33.10;;
77430;SDS011;66498;48.564;19.272;2023-12-20T08:08:27;97.63;;;55.40;;
77430;SDS011;66498;48.564;19.272;2023-12-20T08:10:53;45.63;;;18.57;;
77430;SDS011;66498;48.564;19.272;2023-12-20T08:13:19;22.57;;;11.53;;
77430;SDS011;66498;48.564;19.272;2023-12-20T08:15:50;74.13;;;42.60;;
77430;SDS011;66498;48.564;19.272;2023-12-20T08:18:15;32.53;;;13.80;;
77430;SDS011;66498;48.564;19.272;2023-12-20T08:20:41;61.00;;;35.77;;
77430;SDS011;66498;48.564;19.272;2023-12-20T08:23:06;33.33;;;14.80;;
77430;SDS011;66498;48.564;19.272;2023-12-20T08:25:32;78.57;;;47.67;;
77430;SDS011;66498;48.564;19.272;2023-12-20T08:27:57;31.97;;;13.30;;
77430;SDS011;66498;48.564;19.272;2023-12-20T08:30:23;34.07;;;13.83;;
77430;SDS011;66498;48.564;19.272;2023-12-20T08:32:50;53.53;;;33.00;;
77430;SDS011;66498;48.564;19.272;2023-12-20T08:35:15;59.63;;;35.83;;
77430;SDS011;66498;48.564;19.272;2023-12-20T08:37:41;54.73;;;32.77;;
77430;SDS011;66498;48.564;19.272;2023-12-20T08:40:06;33.67;;;14.03;;
77430;SDS011;66498;48.564;19.272;2023-12-20T08:42:35;27.40;;;12.63;;
77430;SDS011;66498;48.564;19.272;2023-12-20T08:45:00;27.47;;;12.17;;
77430;SDS011;66498;48.564;19.272;2023-12-20T08:47:28;59.97;;;36.30;;
77430;SDS011;66498;48.564;19.272;2023-12-20T08:49:54;34.97;;;14.97;;
77430;SDS011;66498;48.564;19.272;2023-12-20T08:52:22;32.60;;;15.00;;
77430;SDS011;66498;48.564;19.272;2023-12-20T08:54:48;30.53;;;13.67;;
77430;SDS011;66498;48.564;19.272;2023-12-20T08:57:17;42.57;;;17.20;;
77430;SDS011;66498;48.564;19.272;2023-12-20T08:59:44;37.27;;;16.37;;
77430;SDS011;66498;48.564;19.272;2023-12-20T09:02:09;38.87;;;17.00;;
77430;SDS011;66498;48.564;19.272;2023-12-20T09:04:35;65.93;;;38.67;;
77430;SDS011;66498;48.564;19.272;2023-12-20T09:07:00;68.78;;;39.50;;
77430;SDS011;66498;48.564;19.272;2023-12-20T09:09:26;66.07;;;39.60;;
77430;SDS011;66498;48.564;19.272;2023-12-20T09:11:51;69.13;;;40.23;;
77430;SDS011;66498;48.564;19.272;2023-12-20T09:14:17;65.67;;;38.60;;
77430;SDS011;66498;48.564;19.272;2023-12-20T09:16:42;65.85;;;38.50;;
77430;SDS011;66498;48.564;19.272;2023-12-20T09:19:08;39.00;;;20.05;;
77430;SDS011;66498;48.564;19.272;2023-12-20T09:21:34;69.30;;;39.92;;
77430;SDS011;66498;48.564;19.272;2023-12-20T09:23:59;41.83;;;20.25;;
77430;SDS011;66498;48.564;19.272;2023-12-20T09:26:25;44.50;;;19.88;;
77430;SDS011;66498;48.564;19.272;2023-12-20T09:28:50;70.32;;;40.85;;
77430;SDS011;66498;48.564;19.272;2023-12-20T09:31:16;46.13;;;19.35;;
77430;SDS011;66498;48.564;19.272;2023-12-20T09:33:41;40.88;;;17.23;;
77430;SDS011;66498;48.564;19.272;2023-12-20T09:36:07;19.33;;;11.35;;
77430;SDS011;66498;48.564;19.272;2023-12-20T09:38:34;63.92;;;39.58;;
77430;SDS011;66498;48.564;19.272;2023-12-20T09:41:00;37.38;;;16.20;;
77430;SDS011;66498;48.564;19.272;2023-12-20T09:43:28;68.85;;;40.00;;
77430;SDS011;66498;48.564;19.272;2023-12-20T09:45:55;71.82;;;40.50;;
77430;SDS011;66498;48.564;19.272;2023-12-20T09:48:27;42.90;;;18.83;;
77430;SDS011;66498;48.564;19.272;2023-12-20T09:50:53;23.45;;;11.38;;
77430;SDS011;66498;48.564;19.272;2023-12-20T09:53:19;85.13;;;48.57;;
77430;SDS011;66498;48.564;19.272;2023-12-20T09:55:48;95.72;;;58.60;;
77430;SDS011;66498;48.564;19.272;2023-12-20T09:58:14;79.50;;;43.30;;
77430;SDS011;66498;48.564;19.272;2023-12-20T10:00:40;71.43;;;39.92;;
77430;SDS011;66498;48.564;19.272;2023-12-20T10:03:06;70.38;;;39.47;;
77430;SDS011;66498;48.564;19.272;2023-12-20T10:05:32;68.60;;;39.42;;
77430;SDS011;66498;48.564;19.272;2023-12-20T10:07:58;47.05;;;18.98;;
77430;SDS011;66498;48.564;19.272;2023-12-20T10:10:25;68.13;;;38.70;;
77430;SDS011;66498;48.564;19.272;2023-12-20T10:15:34;65.77;;;37.13;;
77430;SDS011;66498;48.564;19.272;2023-12-20T10:18:00;64.72;;;38.45;;
77430;SDS011;66498;48.564;19.272;2023-12-20T10:20:27;67.75;;;38.15;;
77430;SDS011;66498;48.564;19.272;2023-12-20T10:22:54;64.88;;;37.08;;
77430;SDS011;66498;48.564;19.272;2023-12-20T10:25:23;67.47;;;38.22;;
77430;SDS011;66498;48.564;19.272;2023-12-20T10:27:50;70.68;;;39.45;;
77430;SDS011;66498;48.564;19.272;2023-12-20T10:30:33;48.83;;;20.48;;
77430;SDS011;66498;48.564;19.272;2023-12-20T10:32:58;68.03;;;38.67;;
77430;SDS011;66498;48.564;19.272;2023-12-20T10:35:26;66.65;;;38.58;;
77430;SDS011;66498;48.564;19.272;2023-12-20T10:37:53;66.15;;;37.60;;
77430;SDS011;66498;48.564;19.272;2023-12-20T10:40:24;66.88;;;38.00;;
77430;SDS011;66498;48.564;19.272;2023-12-20T10:42:52;71.85;;;39.42;;
77430;SDS011;66498;48.564;19.272;2023-12-20T10:45:18;70.15;;;38.38;;
77430;SDS011;66498;48.564;19.272;2023-12-20T10:47:46;47.60;;;19.58;;
77430;SDS011;66498;48.564;19.272;2023-12-20T10:50:12;72.38;;;40.83;;
77430;SDS011;66498;48.564;19.272;2023-12-20T10:52:37;77.85;;;41.50;;
77430;SDS011;66498;48.564;19.272;2023-12-20T10:55:05;93.53;;;54.13;;
77430;SDS011;66498;48.564;19.272;2023-12-20T10:57:31;76.63;;;42.75;;
77430;SDS011;66498;48.564;19.272;2023-12-20T10:59:59;88.57;;;51.08;;
77430;SDS011;66498;48.564;19.272;2023-12-20T11:02:29;73.07;;;41.25;;
77430;SDS011;66498;48.564;19.272;2023-12-20T11:05:05;76.78;;;41.95;;
77430;SDS011;66498;48.564;19.272;2023-12-20T11:07:36;110.07;;;54.13;;
77430;SDS011;66498;48.564;19.272;2023-12-20T11:10:17;83.60;;;44.45;;
77430;SDS011;66498;48.564;19.272;2023-12-20T11:15:30;124.72;;;59.97;;
77430;SDS011;66498;48.564;19.272;2023-12-20T11:17:56;82.15;;;45.47;;
77430;SDS011;66498;48.564;19.272;2023-12-20T11:20:22;81.10;;;46.20;;
77430;SDS011;66498;48.564;19.272;2023-12-20T11:22:54;76.57;;;32.13;;
77430;SDS011;66498;48.564;19.272;2023-12-20T11:25:21;80.85;;;47.75;;
77430;SDS011;66498;48.564;19.272;2023-12-20T11:28:06;97.80;;;59.10;;
77430;SDS011;66498;48.564;19.272;2023-12-20T11:33:10;53.03;;;20.83;;
77430;SDS011;66498;48.564;19.272;2023-12-20T11:35:36;89.82;;;50.80;;
77430;SDS011;66498;48.564;19.272;2023-12-20T11:38:02;75.53;;;44.40;;
77430;SDS011;66498;48.564;19.272;2023-12-20T11:40:27;71.20;;;41.67;;
77430;SDS011;66498;48.564;19.272;2023-12-20T11:42:53;71.00;;;41.28;;
77430;SDS011;66498;48.564;19.272;2023-12-20T11:45:24;80.63;;;44.25;;
77430;SDS011;66498;48.564;19.272;2023-12-20T11:47:50;73.78;;;42.38;;
77430;SDS011;66498;48.564;19.272;2023-12-20T11:50:19;80.88;;;45.70;;
77430;SDS011;66498;48.564;19.272;2023-12-20T11:52:45;86.15;;;46.92;;
77430;SDS011;66498;48.564;19.272;2023-12-20T11:55:11;83.30;;;45.60;;
77430;SDS011;66498;48.564;19.272;2023-12-20T11:57:37;86.25;;;46.92;;
77430;SDS011;66498;48.564;19.272;2023-12-20T12:00:03;70.18;;;25.00;;
77430;SDS011;66498;48.564;19.272;2023-12-20T12:02:30;110.47;;;58.13;;
77430;SDS011;66498;48.564;19.272;2023-12-20T12:04:55;110.00;;;58.78;;
77430;SDS011;66498;48.564;19.272;2023-12-20T12:07:23;113.43;;;59.28;;
77430;SDS011;66498;48.564;19.272;2023-12-20T12:09:49;114.30;;;60.92;;
77430;SDS011;66498;48.564;19.272;2023-12-20T12:12:15;103.75;;;57.10;;
77430;SDS011;66498;48.564;19.272;2023-12-20T12:14:41;106.28;;;56.90;;
77430;SDS011;66498;48.564;19.272;2023-12-20T12:17:13;100.45;;;55.92;;
77430;SDS011;66498;48.564;19.272;2023-12-20T12:19:40;105.47;;;57.58;;
77430;SDS011;66498;48.564;19.272;2023-12-20T12:22:06;115.10;;;60.83;;
77430;SDS011;66498;48.564;19.272;2023-12-20T12:24:44;109.95;;;58.72;;
77430;SDS011;66498;48.564;19.272;2023-12-20T12:27:10;102.28;;;55.47;;
77430;SDS011;66498;48.564;19.272;2023-12-20T12:29:36;92.72;;;53.13;;
77430;SDS011;66498;48.564;19.272;2023-12-20T12:32:11;90.47;;;52.45;;
77430;SDS011;66498;48.564;19.272;2023-12-20T12:34:37;102.53;;;55.42;;
77430;SDS011;66498;48.564;19.272;2023-12-20T12:37:05;91.00;;;53.25;;
77430;SDS011;66498;48.564;19.272;2023-12-20T12:39:31;101.43;;;56.33;;
77430;SDS011;66498;48.564;19.272;2023-12-20T12:41:57;89.38;;;52.40;;
77430;SDS011;66498;48.564;19.272;2023-12-20T12:44:22;90.43;;;51.47;;
77430;SDS011;66498;48.564;19.272;2023-12-20T12:46:51;87.05;;;51.67;;
77430;SDS011;66498;48.564;19.272;2023-12-20T12:49:19;90.18;;;51.33;;
77430;SDS011;66498;48.564;19.272;2023-12-20T12:51:46;88.55;;;52.45;;
77430;SDS011;66498;48.564;19.272;2023-12-20T12:54:12;88.25;;;51.67;;
77430;SDS011;66498;48.564;19.272;2023-12-20T12:56:38;84.22;;;52.70;;
77430;SDS011;66498;48.564;19.272;2023-12-20T12:59:04;87.13;;;55.75;;
77430;SDS011;66498;48.564;19.272;2023-12-20T13:01:30;87.72;;;54.08;;
77430;SDS011;66498;48.564;19.272;2023-12-20T13:03:56;84.07;;;53.28;;
77430;SDS011;66498;48.564;19.272;2023-12-20T13:06:22;79.25;;;51.30;;
77430;SDS011;66498;48.564;19.272;2023-12-20T13:08:47;77.13;;;48.55;;
77430;SDS011;66498;48.564;19.272;2023-12-20T13:11:13;71.55;;;46.08;;
77430;SDS011;66498;48.564;19.272;2023-12-20T13:13:38;71.45;;;45.25;;
77430;SDS011;66498;48.564;19.272;2023-12-20T13:16:04;64.40;;;42.83;;
77430;SDS011;66498;48.564;19.272;2023-12-20T13:18:30;65.70;;;43.75;;
77430;SDS011;66498;48.564;19.272;2023-12-20T13:20:55;60.25;;;39.35;;
77430;SDS011;66498;48.564;19.272;2023-12-20T13:23:21;55.25;;;36.40;;
77430;SDS011;66498;48.564;19.272;2023-12-20T13:25:46;58.83;;;38.92;;
77430;SDS011;66498;48.564;19.272;2023-12-20T13:28:12;61.15;;;40.67;;
77430;SDS011;66498;48.564;19.272;2023-12-20T13:30:38;61.60;;;41.70;;
77430;SDS011;66498;48.564;19.272;2023-12-20T13:33:05;59.65;;;40.85;;
77430;SDS011;66498;48.564;19.272;2023-12-20T13:35:31;58.25;;;38.50;;
77430;SDS011;66498;48.564;19.272;2023-12-20T13:37:57;63.35;;;41.53;;
77430;SDS011;66498;48.564;19.272;2023-12-20T13:40:23;65.53;;;43.95;;
77430;SDS011;66498;48.564;19.272;2023-12-20T13:42:49;70.45;;;45.08;;
77430;SDS011;66498;48.564;19.272;2023-12-20T13:45:15;67.47;;;45.30;;
77430;SDS011;66498;48.564;19.272;2023-12-20T13:47:41;64.53;;;42.03;;
77430;SDS011;66498;48.564;19.272;2023-12-20T13:50:06;64.00;;;41.63;;
77430;SDS011;66498;48.564;19.272;2023-12-20T13:52:32;60.40;;;40.72;;
77430;SDS011;66498;48.564;19.272;2023-12-20T13:54:57;54.22;;;36.10;;
77430;SDS011;66498;48.564;19.272;2023-12-20T13:57:23;56.88;;;37.15;;
77430;SDS011;66498;48.564;19.272;2023-12-20T13:59:49;60.25;;;37.53;;
77430;SDS011;66498;48.564;19.272;2023-12-20T14:02:14;54.75;;;34.58;;
77430;SDS011;66498;48.564;19.272;2023-12-20T14:04:41;53.83;;;34.30;;
77430;SDS011;66498;48.564;19.272;2023-12-20T14:07:07;52.35;;;34.45;;
77430;SDS011;66498;48.564;19.272;2023-12-20T14:09:33;48.20;;;32.83;;
77430;SDS011;66498;48.564;19.272;2023-12-20T14:11:59;49.47;;;31.33;;